Poularies, Canada
Current Conditions -  °F | °C
As of 1:19 PM on Thursday 29 Jan 2015 (Local Time) from CYUY Reporting Station
Light Snow Light Snow  
Wind Chill:   Ceiling: 2500
Heat Index: 19°   Visibility: 0.62mi
Dew Point: 16°   Wind: 9mph
Humidity: 86%   Direction: 170°S
Pressure: 29.73"   Gusts: NA
Location:  48.67°N, 78.98°W
Report Text: CYUY 291819Z 17008KT 5/8SM -SN VV025 M07/M09 A2973 RMK SN8 SLP091
Loading
Personal Weather Stations






























Interactive Weather Map New forecast layout! Learn more

10-Day Weather Forecast

Advertisements
Track Severe Weather on mobile